sensor_id;sensor_type;location;lat;lon;timestamp;P1;durP1;ratioP1;P2;durP2;ratioP2
18999;SDS011;9633;50.980;13.850;2022-08-19T00:00:49;16.00;;;14.40;;
18999;SDS011;9633;50.980;13.850;2022-08-19T00:02:22;16.13;;;14.63;;
18999;SDS011;9633;50.980;13.850;2022-08-19T00:03:55;15.37;;;13.77;;
18999;SDS011;9633;50.980;13.850;2022-08-19T00:05:29;16.20;;;14.60;;
18999;SDS011;9633;50.980;13.850;2022-08-19T00:07:02;16.53;;;14.33;;
18999;SDS011;9633;50.980;13.850;2022-08-19T00:08:36;16.00;;;14.33;;
18999;SDS011;9633;50.980;13.850;2022-08-19T00:10:13;15.80;;;14.23;;
18999;SDS011;9633;50.980;13.850;2022-08-19T00:11:47;16.23;;;14.73;;
18999;SDS011;9633;50.980;13.850;2022-08-19T00:13:22;16.10;;;14.37;;
18999;SDS011;9633;50.980;13.850;2022-08-19T00:14:56;16.30;;;14.80;;
18999;SDS011;9633;50.980;13.850;2022-08-19T00:16:29;15.37;;;13.97;;
18999;SDS011;9633;50.980;13.850;2022-08-19T00:18:02;15.80;;;14.10;;
18999;SDS011;9633;50.980;13.850;2022-08-19T00:19:35;15.63;;;14.23;;
18999;SDS011;9633;50.980;13.850;2022-08-19T00:21:09;17.73;;;16.03;;
18999;SDS011;9633;50.980;13.850;2022-08-19T00:22:42;16.87;;;15.27;;
18999;SDS011;9633;50.980;13.850;2022-08-19T00:24:16;17.50;;;15.90;;
18999;SDS011;9633;50.980;13.850;2022-08-19T00:25:50;17.07;;;15.37;;
18999;SDS011;9633;50.980;13.850;2022-08-19T00:27:23;16.77;;;15.27;;
18999;SDS011;9633;50.980;13.850;2022-08-19T00:28:58;19.80;;;16.50;;
18999;SDS011;9633;50.980;13.850;2022-08-19T00:30:32;19.73;;;17.60;;
18999;SDS011;9633;50.980;13.850;2022-08-19T00:32:05;19.33;;;17.43;;
18999;SDS011;9633;50.980;13.850;2022-08-19T00:33:41;20.63;;;18.50;;
18999;SDS011;9633;50.980;13.850;2022-08-19T00:35:14;21.73;;;19.73;;
18999;SDS011;9633;50.980;13.850;2022-08-19T00:36:48;21.97;;;19.87;;
18999;SDS011;9633;50.980;13.850;2022-08-19T00:38:21;21.70;;;19.60;;
18999;SDS011;9633;50.980;13.850;2022-08-19T00:40:08;23.00;;;20.80;;
18999;SDS011;9633;50.980;13.850;2022-08-19T00:41:44;23.53;;;21.13;;
18999;SDS011;9633;50.980;13.850;2022-08-19T00:43:19;23.23;;;20.93;;
18999;SDS011;9633;50.980;13.850;2022-08-19T00:44:54;21.97;;;19.97;;
18999;SDS011;9633;50.980;13.850;2022-08-19T00:46:28;21.93;;;19.67;;
18999;SDS011;9633;50.980;13.850;2022-08-19T00:48:01;21.27;;;19.27;;
18999;SDS011;9633;50.980;13.850;2022-08-19T00:49:47;22.23;;;20.13;;
18999;SDS011;9633;50.980;13.850;2022-08-19T00:51:22;21.90;;;19.70;;
18999;SDS011;9633;50.980;13.850;2022-08-19T00:52:58;22.73;;;19.87;;
18999;SDS011;9633;50.980;13.850;2022-08-19T00:54:31;22.20;;;20.10;;
18999;SDS011;9633;50.980;13.850;2022-08-19T00:56:05;22.40;;;20.20;;
18999;SDS011;9633;50.980;13.850;2022-08-19T00:57:40;21.53;;;19.30;;
18999;SDS011;9633;50.980;13.850;2022-08-19T00:59:18;21.43;;;19.33;;
18999;SDS011;9633;50.980;13.850;2022-08-19T01:01:15;22.70;;;20.70;;
18999;SDS011;9633;50.980;13.850;2022-08-19T01:02:48;22.30;;;19.97;;
18999;SDS011;9633;50.980;13.850;2022-08-19T01:04:21;22.30;;;20.10;;
18999;SDS011;9633;50.980;13.850;2022-08-19T01:05:55;21.70;;;19.63;;
18999;SDS011;9633;50.980;13.850;2022-08-19T01:07:28;22.50;;;20.23;;
18999;SDS011;9633;50.980;13.850;2022-08-19T01:09:09;21.00;;;19.00;;
18999;SDS011;9633;50.980;13.850;2022-08-19T01:10:43;20.33;;;18.23;;
18999;SDS011;9633;50.980;13.850;2022-08-19T01:12:19;23.03;;;20.57;;
18999;SDS011;9633;50.980;13.850;2022-08-19T01:13:53;22.90;;;20.40;;
18999;SDS011;9633;50.980;13.850;2022-08-19T01:15:27;20.77;;;18.73;;
18999;SDS011;9633;50.980;13.850;2022-08-19T01:17:05;22.43;;;20.40;;
18999;SDS011;9633;50.980;13.850;2022-08-19T01:18:38;21.33;;;19.27;;
18999;SDS011;9633;50.980;13.850;2022-08-19T01:20:14;21.70;;;19.60;;
18999;SDS011;9633;50.980;13.850;2022-08-19T01:21:52;22.67;;;20.47;;
18999;SDS011;9633;50.980;13.850;2022-08-19T01:23:46;22.73;;;20.50;;
18999;SDS011;9633;50.980;13.850;2022-08-19T01:25:20;21.63;;;19.47;;
18999;SDS011;9633;50.980;13.850;2022-08-19T01:26:57;21.47;;;19.03;;
18999;SDS011;9633;50.980;13.850;2022-08-19T01:28:29;23.10;;;21.00;;
18999;SDS011;9633;50.980;13.850;2022-08-19T01:30:10;22.50;;;20.37;;
18999;SDS011;9633;50.980;13.850;2022-08-19T01:31:45;22.33;;;20.20;;
18999;SDS011;9633;50.980;13.850;2022-08-19T01:33:18;21.40;;;19.50;;
18999;SDS011;9633;50.980;13.850;2022-08-19T01:34:51;21.43;;;19.53;;
18999;SDS011;9633;50.980;13.850;2022-08-19T01:36:27;21.67;;;19.57;;
18999;SDS011;9633;50.980;13.850;2022-08-19T01:38:03;21.73;;;19.53;;
18999;SDS011;9633;50.980;13.850;2022-08-19T01:39:41;23.07;;;21.03;;
18999;SDS011;9633;50.980;13.850;2022-08-19T01:41:15;21.70;;;19.60;;
18999;SDS011;9633;50.980;13.850;2022-08-19T01:42:50;22.63;;;20.43;;
18999;SDS011;9633;50.980;13.850;2022-08-19T01:44:24;21.80;;;19.70;;
18999;SDS011;9633;50.980;13.850;2022-08-19T01:45:58;21.97;;;19.97;;
18999;SDS011;9633;50.980;13.850;2022-08-19T01:47:30;22.43;;;20.27;;
18999;SDS011;9633;50.980;13.850;2022-08-19T01:49:04;22.73;;;20.63;;
18999;SDS011;9633;50.980;13.850;2022-08-19T01:50:37;22.87;;;20.77;;
18999;SDS011;9633;50.980;13.850;2022-08-19T01:52:10;22.80;;;20.67;;
18999;SDS011;9633;50.980;13.850;2022-08-19T01:53:43;23.40;;;21.20;;
18999;SDS011;9633;50.980;13.850;2022-08-19T01:55:21;21.20;;;19.40;;
18999;SDS011;9633;50.980;13.850;2022-08-19T01:57:00;23.30;;;21.03;;
18999;SDS011;9633;50.980;13.850;2022-08-19T01:58:38;23.67;;;21.37;;
18999;SDS011;9633;50.980;13.850;2022-08-19T02:00:24;23.60;;;21.20;;
18999;SDS011;9633;50.980;13.850;2022-08-19T02:02:02;24.30;;;22.00;;
18999;SDS011;9633;50.980;13.850;2022-08-19T02:03:38;23.73;;;21.43;;
18999;SDS011;9633;50.980;13.850;2022-08-19T02:05:11;23.80;;;21.57;;
18999;SDS011;9633;50.980;13.850;2022-08-19T02:06:44;24.20;;;22.00;;
18999;SDS011;9633;50.980;13.850;2022-08-19T02:08:17;22.57;;;20.50;;
18999;SDS011;9633;50.980;13.850;2022-08-19T02:09:50;24.03;;;21.83;;
18999;SDS011;9633;50.980;13.850;2022-08-19T02:11:26;23.63;;;21.47;;
18999;SDS011;9633;50.980;13.850;2022-08-19T02:13:02;25.03;;;22.53;;
18999;SDS011;9633;50.980;13.850;2022-08-19T02:14:36;24.50;;;22.03;;
18999;SDS011;9633;50.980;13.850;2022-08-19T02:16:09;22.47;;;20.20;;
18999;SDS011;9633;50.980;13.850;2022-08-19T02:17:42;22.53;;;20.37;;
18999;SDS011;9633;50.980;13.850;2022-08-19T02:19:15;23.83;;;21.63;;
18999;SDS011;9633;50.980;13.850;2022-08-19T02:20:49;23.77;;;21.67;;
18999;SDS011;9633;50.980;13.850;2022-08-19T02:22:22;23.13;;;20.93;;
18999;SDS011;9633;50.980;13.850;2022-08-19T02:23:56;23.33;;;21.23;;
18999;SDS011;9633;50.980;13.850;2022-08-19T02:25:30;23.87;;;21.67;;
18999;SDS011;9633;50.980;13.850;2022-08-19T02:27:04;25.30;;;22.80;;
18999;SDS011;9633;50.980;13.850;2022-08-19T02:28:37;24.17;;;21.87;;
18999;SDS011;9633;50.980;13.850;2022-08-19T02:30:13;22.57;;;20.47;;
18999;SDS011;9633;50.980;13.850;2022-08-19T02:31:48;23.13;;;21.07;;
18999;SDS011;9633;50.980;13.850;2022-08-19T02:33:20;23.53;;;21.03;;
18999;SDS011;9633;50.980;13.850;2022-08-19T02:34:53;22.63;;;20.30;;
18999;SDS011;9633;50.980;13.850;2022-08-19T02:36:27;23.57;;;21.40;;
18999;SDS011;9633;50.980;13.850;2022-08-19T02:38:01;24.17;;;21.93;;
18999;SDS011;9633;50.980;13.850;2022-08-19T02:39:52;22.20;;;19.97;;
18999;SDS011;9633;50.980;13.850;2022-08-19T02:41:26;23.13;;;20.93;;
18999;SDS011;9633;50.980;13.850;2022-08-19T02:43:02;22.07;;;20.13;;
18999;SDS011;9633;50.980;13.850;2022-08-19T02:44:36;24.30;;;22.10;;
18999;SDS011;9633;50.980;13.850;2022-08-19T02:46:13;23.67;;;21.43;;
18999;SDS011;9633;50.980;13.850;2022-08-19T02:47:49;22.90;;;20.90;;
18999;SDS011;9633;50.980;13.850;2022-08-19T02:49:22;23.00;;;20.83;;
18999;SDS011;9633;50.980;13.850;2022-08-19T02:50:55;24.23;;;21.93;;
18999;SDS011;9633;50.980;13.850;2022-08-19T02:52:28;22.43;;;20.17;;
18999;SDS011;9633;50.980;13.850;2022-08-19T02:54:00;24.00;;;21.60;;
18999;SDS011;9633;50.980;13.850;2022-08-19T02:55:34;22.23;;;20.13;;
18999;SDS011;9633;50.980;13.850;2022-08-19T02:57:16;22.90;;;20.73;;
18999;SDS011;9633;50.980;13.850;2022-08-19T02:58:51;25.00;;;22.33;;
18999;SDS011;9633;50.980;13.850;2022-08-19T03:00:24;23.73;;;21.43;;
18999;SDS011;9633;50.980;13.850;2022-08-19T03:01:57;22.80;;;20.77;;
18999;SDS011;9633;50.980;13.850;2022-08-19T03:03:29;24.97;;;22.57;;
18999;SDS011;9633;50.980;13.850;2022-08-19T03:05:03;23.00;;;20.80;;
18999;SDS011;9633;50.980;13.850;2022-08-19T03:06:38;23.07;;;20.87;;
18999;SDS011;9633;50.980;13.850;2022-08-19T03:08:12;23.53;;;21.23;;
18999;SDS011;9633;50.980;13.850;2022-08-19T03:09:45;22.93;;;20.73;;
18999;SDS011;9633;50.980;13.850;2022-08-19T03:11:20;22.87;;;20.87;;
18999;SDS011;9633;50.980;13.850;2022-08-19T03:12:54;22.40;;;20.30;;
18999;SDS011;9633;50.980;13.850;2022-08-19T03:14:29;23.60;;;21.40;;
18999;SDS011;9633;50.980;13.850;2022-08-19T03:16:04;23.33;;;21.17;;
18999;SDS011;9633;50.980;13.850;2022-08-19T03:17:38;23.47;;;21.27;;
18999;SDS011;9633;50.980;13.850;2022-08-19T03:19:12;23.63;;;21.33;;
18999;SDS011;9633;50.980;13.850;2022-08-19T03:20:46;22.93;;;20.73;;
18999;SDS011;9633;50.980;13.850;2022-08-19T03:22:20;24.53;;;21.97;;
18999;SDS011;9633;50.980;13.850;2022-08-19T03:23:54;22.97;;;20.77;;
18999;SDS011;9633;50.980;13.850;2022-08-19T03:25:28;24.77;;;22.23;;
18999;SDS011;9633;50.980;13.850;2022-08-19T03:27:00;22.90;;;20.70;;
18999;SDS011;9633;50.980;13.850;2022-08-19T03:28:36;23.47;;;21.37;;
18999;SDS011;9633;50.980;13.850;2022-08-19T03:30:11;23.30;;;21.30;;
18999;SDS011;9633;50.980;13.850;2022-08-19T03:31:53;23.80;;;21.57;;
18999;SDS011;9633;50.980;13.850;2022-08-19T03:33:28;23.93;;;21.73;;
18999;SDS011;9633;50.980;13.850;2022-08-19T03:35:02;24.23;;;21.77;;
18999;SDS011;9633;50.980;13.850;2022-08-19T03:36:36;23.97;;;21.80;;
18999;SDS011;9633;50.980;13.850;2022-08-19T03:38:10;24.40;;;22.10;;
18999;SDS011;9633;50.980;13.850;2022-08-19T03:39:43;24.43;;;22.13;;
18999;SDS011;9633;50.980;13.850;2022-08-19T03:41:17;24.60;;;22.30;;
18999;SDS011;9633;50.980;13.850;2022-08-19T03:42:53;24.40;;;22.20;;
18999;SDS011;9633;50.980;13.850;2022-08-19T03:44:26;24.50;;;21.97;;
18999;SDS011;9633;50.980;13.850;2022-08-19T03:46:01;24.47;;;22.17;;
18999;SDS011;9633;50.980;13.850;2022-08-19T03:47:37;24.40;;;22.20;;
18999;SDS011;9633;50.980;13.850;2022-08-19T03:49:11;25.17;;;22.67;;
18999;SDS011;9633;50.980;13.850;2022-08-19T03:50:44;24.93;;;22.43;;
18999;SDS011;9633;50.980;13.850;2022-08-19T03:52:18;26.47;;;23.83;;
18999;SDS011;9633;50.980;13.850;2022-08-19T03:53:51;25.80;;;23.33;;
18999;SDS011;9633;50.980;13.850;2022-08-19T03:55:23;25.60;;;23.13;;
18999;SDS011;9633;50.980;13.850;2022-08-19T03:56:57;25.50;;;23.23;;
18999;SDS011;9633;50.980;13.850;2022-08-19T03:58:30;24.60;;;22.30;;
18999;SDS011;9633;50.980;13.850;2022-08-19T04:00:04;26.27;;;23.87;;
18999;SDS011;9633;50.980;13.850;2022-08-19T04:01:45;26.37;;;23.87;;
18999;SDS011;9633;50.980;13.850;2022-08-19T04:03:17;25.27;;;22.87;;
18999;SDS011;9633;50.980;13.850;2022-08-19T04:04:52;24.63;;;22.37;;
18999;SDS011;9633;50.980;13.850;2022-08-19T04:06:29;26.77;;;24.13;;
18999;SDS011;9633;50.980;13.850;2022-08-19T04:08:03;26.47;;;23.80;;
18999;SDS011;9633;50.980;13.850;2022-08-19T04:09:42;27.60;;;24.97;;
18999;SDS011;9633;50.980;13.850;2022-08-19T04:11:16;25.93;;;23.53;;
18999;SDS011;9633;50.980;13.850;2022-08-19T04:13:12;25.83;;;23.33;;
18999;SDS011;9633;50.980;13.850;2022-08-19T04:14:46;26.83;;;24.33;;
18999;SDS011;9633;50.980;13.850;2022-08-19T04:16:19;27.47;;;24.87;;
18999;SDS011;9633;50.980;13.850;2022-08-19T04:18:04;26.63;;;24.03;;
18999;SDS011;9633;50.980;13.850;2022-08-19T04:19:39;26.83;;;24.40;;
18999;SDS011;9633;50.980;13.850;2022-08-19T04:21:15;28.03;;;25.47;;
18999;SDS011;9633;50.980;13.850;2022-08-19T04:22:49;28.53;;;25.83;;
18999;SDS011;9633;50.980;13.850;2022-08-19T04:24:22;28.60;;;25.70;;
18999;SDS011;9633;50.980;13.850;2022-08-19T04:25:56;27.90;;;25.13;;
18999;SDS011;9633;50.980;13.850;2022-08-19T04:27:29;27.83;;;25.07;;
18999;SDS011;9633;50.980;13.850;2022-08-19T04:29:04;27.90;;;25.30;;
18999;SDS011;9633;50.980;13.850;2022-08-19T04:30:43;26.67;;;24.03;;
18999;SDS011;9633;50.980;13.850;2022-08-19T04:32:19;27.13;;;24.43;;
18999;SDS011;9633;50.980;13.850;2022-08-19T04:33:56;27.27;;;24.47;;
18999;SDS011;9633;50.980;13.850;2022-08-19T04:35:33;27.50;;;24.90;;
18999;SDS011;9633;50.980;13.850;2022-08-19T04:37:08;27.70;;;24.93;;
18999;SDS011;9633;50.980;13.850;2022-08-19T04:38:43;26.80;;;24.17;;
18999;SDS011;9633;50.980;13.850;2022-08-19T04:40:17;28.60;;;25.43;;
18999;SDS011;9633;50.980;13.850;2022-08-19T04:42:08;26.80;;;24.23;;
18999;SDS011;9633;50.980;13.850;2022-08-19T04:44:01;27.23;;;24.57;;
18999;SDS011;9633;50.980;13.850;2022-08-19T04:45:35;26.93;;;24.37;;
18999;SDS011;9633;50.980;13.850;2022-08-19T04:47:14;27.20;;;24.43;;
18999;SDS011;9633;50.980;13.850;2022-08-19T04:49:08;27.67;;;24.90;;
18999;SDS011;9633;50.980;13.850;2022-08-19T04:50:44;27.10;;;24.50;;
18999;SDS011;9633;50.980;13.850;2022-08-19T04:52:17;26.87;;;24.17;;
18999;SDS011;9633;50.980;13.850;2022-08-19T04:53:49;27.63;;;25.10;;
18999;SDS011;9633;50.980;13.850;2022-08-19T04:55:23;27.53;;;24.83;;
18999;SDS011;9633;50.980;13.850;2022-08-19T04:56:57;29.50;;;26.77;;
18999;SDS011;9633;50.980;13.850;2022-08-19T04:58:30;29.53;;;26.53;;
18999;SDS011;9633;50.980;13.850;2022-08-19T05:00:04;28.23;;;25.40;;
18999;SDS011;9633;50.980;13.850;2022-08-19T05:01:39;30.50;;;27.23;;
18999;SDS011;9633;50.980;13.850;2022-08-19T05:03:15;27.93;;;25.27;;
18999;SDS011;9633;50.980;13.850;2022-08-19T05:04:49;29.83;;;26.93;;
18999;SDS011;9633;50.980;13.850;2022-08-19T05:06:23;28.13;;;25.37;;
18999;SDS011;9633;50.980;13.850;2022-08-19T05:07:56;27.70;;;25.10;;
18999;SDS011;9633;50.980;13.850;2022-08-19T05:09:30;27.10;;;24.50;;
18999;SDS011;9633;50.980;13.850;2022-08-19T05:11:24;28.10;;;25.33;;
18999;SDS011;9633;50.980;13.850;2022-08-19T05:12:59;28.40;;;25.70;;
18999;SDS011;9633;50.980;13.850;2022-08-19T05:14:32;27.97;;;25.17;;
18999;SDS011;9633;50.980;13.850;2022-08-19T05:16:08;28.07;;;25.27;;
18999;SDS011;9633;50.980;13.850;2022-08-19T05:17:42;27.60;;;24.93;;
18999;SDS011;9633;50.980;13.850;2022-08-19T05:19:36;27.87;;;25.07;;
18999;SDS011;9633;50.980;13.850;2022-08-19T05:21:28;28.33;;;25.53;;
18999;SDS011;9633;50.980;13.850;2022-08-19T05:23:19;30.00;;;26.93;;
18999;SDS011;9633;50.980;13.850;2022-08-19T05:24:53;29.67;;;26.77;;
18999;SDS011;9633;50.980;13.850;2022-08-19T05:26:44;28.60;;;25.83;;
18999;SDS011;9633;50.980;13.850;2022-08-19T05:28:19;30.57;;;27.27;;
18999;SDS011;9633;50.980;13.850;2022-08-19T05:29:53;30.30;;;27.23;;
18999;SDS011;9633;50.980;13.850;2022-08-19T05:31:26;29.83;;;26.97;;
18999;SDS011;9633;50.980;13.850;2022-08-19T05:32:59;30.87;;;27.80;;
18999;SDS011;9633;50.980;13.850;2022-08-19T05:34:32;30.07;;;27.17;;
18999;SDS011;9633;50.980;13.850;2022-08-19T05:36:06;33.83;;;30.33;;
18999;SDS011;9633;50.980;13.850;2022-08-19T05:37:41;31.77;;;28.63;;
18999;SDS011;9633;50.980;13.850;2022-08-19T05:39:16;32.93;;;29.43;;
18999;SDS011;9633;50.980;13.850;2022-08-19T05:40:51;33.67;;;30.20;;
18999;SDS011;9633;50.980;13.850;2022-08-19T05:42:24;32.63;;;29.33;;
18999;SDS011;9633;50.980;13.850;2022-08-19T05:43:58;33.13;;;29.93;;
18999;SDS011;9633;50.980;13.850;2022-08-19T05:45:37;34.47;;;30.83;;
18999;SDS011;9633;50.980;13.850;2022-08-19T05:47:12;32.33;;;29.10;;
18999;SDS011;9633;50.980;13.850;2022-08-19T05:48:46;36.13;;;32.30;;
18999;SDS011;9633;50.980;13.850;2022-08-19T05:50:19;34.77;;;30.57;;
18999;SDS011;9633;50.980;13.850;2022-08-19T05:51:54;37.63;;;33.50;;
18999;SDS011;9633;50.980;13.850;2022-08-19T05:53:29;36.23;;;31.27;;
18999;SDS011;9633;50.980;13.850;2022-08-19T05:55:02;34.60;;;31.07;;
18999;SDS011;9633;50.980;13.850;2022-08-19T05:56:36;34.57;;;30.90;;
18999;SDS011;9633;50.980;13.850;2022-08-19T05:58:09;34.53;;;31.07;;
18999;SDS011;9633;50.980;13.850;2022-08-19T05:59:43;33.37;;;29.97;;
18999;SDS011;9633;50.980;13.850;2022-08-19T06:01:17;35.10;;;31.17;;
18999;SDS011;9633;50.980;13.850;2022-08-19T06:02:51;33.83;;;30.43;;
18999;SDS011;9633;50.980;13.850;2022-08-19T06:04:26;32.20;;;29.03;;
18999;SDS011;9633;50.980;13.850;2022-08-19T06:05:59;32.50;;;29.23;;
18999;SDS011;9633;50.980;13.850;2022-08-19T06:07:33;34.00;;;30.43;;
18999;SDS011;9633;50.980;13.850;2022-08-19T06:09:08;33.10;;;29.77;;
18999;SDS011;9633;50.980;13.850;2022-08-19T06:10:42;31.40;;;28.20;;
18999;SDS011;9633;50.980;13.850;2022-08-19T06:12:15;32.97;;;29.47;;
18999;SDS011;9633;50.980;13.850;2022-08-19T06:13:51;32.33;;;28.83;;
18999;SDS011;9633;50.980;13.850;2022-08-19T06:15:30;31.53;;;28.43;;
18999;SDS011;9633;50.980;13.850;2022-08-19T06:17:03;31.03;;;27.70;;
18999;SDS011;9633;50.980;13.850;2022-08-19T06:18:37;31.50;;;28.33;;
18999;SDS011;9633;50.980;13.850;2022-08-19T06:20:12;29.90;;;26.80;;
18999;SDS011;9633;50.980;13.850;2022-08-19T06:22:09;30.47;;;27.47;;
18999;SDS011;9633;50.980;13.850;2022-08-19T06:23:44;30.67;;;27.43;;
18999;SDS011;9633;50.980;13.850;2022-08-19T06:25:18;30.77;;;27.57;;
18999;SDS011;9633;50.980;13.850;2022-08-19T06:26:52;29.40;;;26.47;;
18999;SDS011;9633;50.980;13.850;2022-08-19T06:28:32;29.20;;;26.10;;
18999;SDS011;9633;50.980;13.850;2022-08-19T06:30:05;30.13;;;27.07;;
18999;SDS011;9633;50.980;13.850;2022-08-19T06:31:40;28.93;;;25.83;;
18999;SDS011;9633;50.980;13.850;2022-08-19T06:33:15;29.30;;;26.40;;
18999;SDS011;9633;50.980;13.850;2022-08-19T06:34:49;27.50;;;24.53;;
18999;SDS011;9633;50.980;13.850;2022-08-19T06:36:23;27.03;;;24.57;;
18999;SDS011;9633;50.980;13.850;2022-08-19T06:38:02;26.87;;;24.07;;
18999;SDS011;9633;50.980;13.850;2022-08-19T06:39:36;25.63;;;23.20;;
18999;SDS011;9633;50.980;13.850;2022-08-19T06:41:12;23.57;;;21.27;;
18999;SDS011;9633;50.980;13.850;2022-08-19T06:42:46;23.27;;;20.97;;
18999;SDS011;9633;50.980;13.850;2022-08-19T06:44:27;22.67;;;20.50;;
18999;SDS011;9633;50.980;13.850;2022-08-19T06:46:14;21.83;;;19.57;;
18999;SDS011;9633;50.980;13.850;2022-08-19T06:47:48;22.63;;;20.23;;
18999;SDS011;9633;50.980;13.850;2022-08-19T06:49:25;20.90;;;18.70;;
18999;SDS011;9633;50.980;13.850;2022-08-19T06:51:03;20.53;;;18.53;;
18999;SDS011;9633;50.980;13.850;2022-08-19T06:52:39;19.03;;;17.23;;
18999;SDS011;9633;50.980;13.850;2022-08-19T06:54:12;20.27;;;17.20;;
18999;SDS011;9633;50.980;13.850;2022-08-19T06:55:49;18.83;;;17.00;;
18999;SDS011;9633;50.980;13.850;2022-08-19T06:57:33;19.77;;;17.87;;
18999;SDS011;9633;50.980;13.850;2022-08-19T06:59:08;18.50;;;16.70;;
18999;SDS011;9633;50.980;13.850;2022-08-19T07:00:42;18.17;;;16.57;;
18999;SDS011;9633;50.980;13.850;2022-08-19T07:02:16;18.93;;;16.87;;
18999;SDS011;9633;50.980;13.850;2022-08-19T07:03:49;18.43;;;16.73;;
18999;SDS011;9633;50.980;13.850;2022-08-19T07:05:23;18.30;;;16.50;;
18999;SDS011;9633;50.980;13.850;2022-08-19T07:06:56;18.43;;;16.70;;
18999;SDS011;9633;50.980;13.850;2022-08-19T07:08:50;17.80;;;16.30;;
18999;SDS011;9633;50.980;13.850;2022-08-19T07:10:26;16.60;;;15.03;;
18999;SDS011;9633;50.980;13.850;2022-08-19T07:12:03;17.30;;;15.50;;
18999;SDS011;9633;50.980;13.850;2022-08-19T07:13:40;18.00;;;16.33;;
18999;SDS011;9633;50.980;13.850;2022-08-19T07:15:15;17.53;;;16.03;;
18999;SDS011;9633;50.980;13.850;2022-08-19T07:16:49;17.60;;;15.93;;
18999;SDS011;9633;50.980;13.850;2022-08-19T07:18:25;17.10;;;15.60;;
18999;SDS011;9633;50.980;13.850;2022-08-19T07:19:59;16.50;;;15.00;;
18999;SDS011;9633;50.980;13.850;2022-08-19T07:21:37;18.30;;;16.43;;
18999;SDS011;9633;50.980;13.850;2022-08-19T07:23:10;18.33;;;16.63;;
18999;SDS011;9633;50.980;13.850;2022-08-19T07:24:47;18.70;;;16.90;;
18999;SDS011;9633;50.980;13.850;2022-08-19T07:26:22;17.13;;;15.50;;
18999;SDS011;9633;50.980;13.850;2022-08-19T07:27:58;17.90;;;16.30;;
18999;SDS011;9633;50.980;13.850;2022-08-19T07:29:33;18.87;;;17.03;;
18999;SDS011;9633;50.980;13.850;2022-08-19T07:31:09;18.50;;;16.80;;
18999;SDS011;9633;50.980;13.850;2022-08-19T07:32:45;18.17;;;16.37;;
18999;SDS011;9633;50.980;13.850;2022-08-19T07:34:20;19.47;;;17.67;;
18999;SDS011;9633;50.980;13.850;2022-08-19T07:35:54;18.83;;;17.13;;
18999;SDS011;9633;50.980;13.850;2022-08-19T07:37:28;19.33;;;17.60;;
18999;SDS011;9633;50.980;13.850;2022-08-19T07:39:04;19.07;;;17.07;;
18999;SDS011;9633;50.980;13.850;2022-08-19T07:40:43;18.43;;;16.73;;
18999;SDS011;9633;50.980;13.850;2022-08-19T07:42:17;19.80;;;17.90;;
18999;SDS011;9633;50.980;13.850;2022-08-19T07:43:52;20.13;;;18.03;;
18999;SDS011;9633;50.980;13.850;2022-08-19T07:45:26;20.43;;;18.43;;
18999;SDS011;9633;50.980;13.850;2022-08-19T07:47:00;18.27;;;16.67;;
18999;SDS011;9633;50.980;13.850;2022-08-19T07:48:35;19.00;;;17.10;;
18999;SDS011;9633;50.980;13.850;2022-08-19T07:50:09;17.80;;;16.20;;
18999;SDS011;9633;50.980;13.850;2022-08-19T07:51:43;19.10;;;17.17;;
18999;SDS011;9633;50.980;13.850;2022-08-19T07:53:17;18.77;;;16.97;;
18999;SDS011;9633;50.980;13.850;2022-08-19T07:54:50;18.97;;;16.97;;
18999;SDS011;9633;50.980;13.850;2022-08-19T07:56:24;18.60;;;17.00;;
18999;SDS011;9633;50.980;13.850;2022-08-19T07:57:57;20.03;;;18.13;;
18999;SDS011;9633;50.980;13.850;2022-08-19T07:59:33;18.43;;;16.83;;
18999;SDS011;9633;50.980;13.850;2022-08-19T08:01:09;18.33;;;16.50;;
18999;SDS011;9633;50.980;13.850;2022-08-19T08:02:46;18.70;;;16.87;;
18999;SDS011;9633;50.980;13.850;2022-08-19T08:04:21;19.83;;;17.00;;
18999;SDS011;9633;50.980;13.850;2022-08-19T08:06:13;18.93;;;17.13;;
18999;SDS011;9633;50.980;13.850;2022-08-19T08:08:04;18.67;;;16.93;;
18999;SDS011;9633;50.980;13.850;2022-08-19T08:09:58;19.00;;;17.00;;
18999;SDS011;9633;50.980;13.850;2022-08-19T08:11:33;18.13;;;16.43;;
18999;SDS011;9633;50.980;13.850;2022-08-19T08:13:08;18.07;;;16.37;;
18999;SDS011;9633;50.980;13.850;2022-08-19T08:14:43;18.03;;;16.43;;
18999;SDS011;9633;50.980;13.850;2022-08-19T08:16:20;17.73;;;16.20;;
18999;SDS011;9633;50.980;13.850;2022-08-19T08:17:53;18.43;;;16.63;;
18999;SDS011;9633;50.980;13.850;2022-08-19T08:19:28;17.33;;;15.70;;
18999;SDS011;9633;50.980;13.850;2022-08-19T08:21:02;17.83;;;16.13;;
18999;SDS011;9633;50.980;13.850;2022-08-19T08:22:35;16.97;;;15.47;;
18999;SDS011;9633;50.980;13.850;2022-08-19T08:24:27;18.50;;;16.70;;
18999;SDS011;9633;50.980;13.850;2022-08-19T08:26:02;17.67;;;15.97;;
18999;SDS011;9633;50.980;13.850;2022-08-19T08:27:36;18.30;;;16.50;;
18999;SDS011;9633;50.980;13.850;2022-08-19T08:29:11;18.90;;;16.50;;
18999;SDS011;9633;50.980;13.850;2022-08-19T08:30:45;19.30;;;17.27;;
18999;SDS011;9633;50.980;13.850;2022-08-19T08:32:22;18.40;;;16.50;;
18999;SDS011;9633;50.980;13.850;2022-08-19T08:33:55;19.67;;;17.80;;
18999;SDS011;9633;50.980;13.850;2022-08-19T08:35:28;20.67;;;18.53;;
18999;SDS011;9633;50.980;13.850;2022-08-19T08:37:01;20.90;;;18.80;;
18999;SDS011;9633;50.980;13.850;2022-08-19T08:38:35;19.70;;;17.90;;
18999;SDS011;9633;50.980;13.850;2022-08-19T08:40:19;19.57;;;17.77;;
18999;SDS011;9633;50.980;13.850;2022-08-19T08:41:56;19.67;;;17.87;;
18999;SDS011;9633;50.980;13.850;2022-08-19T08:43:49;19.30;;;17.30;;
18999;SDS011;9633;50.980;13.850;2022-08-19T08:45:24;18.87;;;17.17;;
18999;SDS011;9633;50.980;13.850;2022-08-19T08:47:03;18.93;;;17.13;;
18999;SDS011;9633;50.980;13.850;2022-08-19T08:48:46;18.47;;;16.57;;
18999;SDS011;9633;50.980;13.850;2022-08-19T08:50:25;19.10;;;17.10;;
18999;SDS011;9633;50.980;13.850;2022-08-19T08:52:05;18.63;;;16.57;;
18999;SDS011;9633;50.980;13.850;2022-08-19T08:53:41;17.87;;;16.13;;
18999;SDS011;9633;50.980;13.850;2022-08-19T08:55:17;18.37;;;16.47;;
18999;SDS011;9633;50.980;13.850;2022-08-19T08:56:52;18.77;;;16.30;;
18999;SDS011;9633;50.980;13.850;2022-08-19T08:58:27;19.53;;;17.03;;
18999;SDS011;9633;50.980;13.850;2022-08-19T09:00:08;19.90;;;17.17;;
18999;SDS011;9633;50.980;13.850;2022-08-19T09:01:48;19.03;;;17.03;;
18999;SDS011;9633;50.980;13.850;2022-08-19T09:03:22;19.53;;;17.63;;
18999;SDS011;9633;50.980;13.850;2022-08-19T09:05:03;18.90;;;17.00;;
18999;SDS011;9633;50.980;13.850;2022-08-19T09:06:38;18.60;;;16.70;;
18999;SDS011;9633;50.980;13.850;2022-08-19T09:08:17;17.63;;;15.83;;
18999;SDS011;9633;50.980;13.850;2022-08-19T09:10:02;17.67;;;15.87;;
18999;SDS011;9633;50.980;13.850;2022-08-19T09:13:38;18.33;;;16.60;;
18999;SDS011;9633;50.980;13.850;2022-08-19T09:15:18;19.13;;;17.13;;
18999;SDS011;9633;50.980;13.850;2022-08-19T09:17:04;19.73;;;17.30;;
18999;SDS011;9633;50.980;13.850;2022-08-19T09:18:40;19.70;;;17.63;;
18999;SDS011;9633;50.980;13.850;2022-08-19T09:20:18;18.53;;;16.63;;
18999;SDS011;9633;50.980;13.850;2022-08-19T09:21:56;16.80;;;15.27;;
18999;SDS011;9633;50.980;13.850;2022-08-19T09:23:31;16.70;;;15.10;;